Rimini, South Carolina
Current Conditions -  °F | °C
As of 6:58 AM on Thursday 29 Jan 2015 (Local Time) from KSSC Reporting Station
Clear Clear  
Wind Chill: 28°   Ceiling: Unl
Heat Index: 28°   Visibility: 10mi
Dew Point: 22°   Wind: 1mph
Humidity: 78%   Direction: 260°W
Pressure: 30.34"   Gusts: NA
Location:  33.7445°N, 80.5249°W
Report Text: KSSC 291158Z AUTO 26001KT 10SM CLR M02/M05 A3034 RMK AO2 SLP278 T10211055 11019 21040 53007 $
Loading
Personal Weather Stations






























Interactive Weather Map New forecast layout! Learn more

10-Day Weather Forecast

Advertisements
Track Severe Weather on mobile